Madison, Maine
Current Conditions -  °F | °C
As of 3:15 AM on Thursday 29 Jan 2015 (Local Time) from KWVL Reporting Station
Clear Clear  
Wind Chill:   Ceiling: Unl
Heat Index:   Visibility: 10mi
Dew Point: -9°   Wind: 3mph
Humidity: 61%   Direction: 240°WSW
Pressure: 30.2"   Gusts: NA
Location:  44.8°N, 69.88°W
Report Text: KWVL 290815Z 24003KT 10SM CLR M17/M23 A3020 RMK AO1
Loading
Personal Weather Stations






























Interactive Weather Map New forecast layout! Learn more

10-Day Weather Forecast

Advertisements
Track Severe Weather on mobile